createdAt,value
2023-04-30T00:00:20.670Z,11.1760
2023-04-30T00:01:21.062Z,11.1370
2023-04-30T00:02:23.099Z,11.1502
2023-04-30T00:03:31.326Z,11.1165
2023-04-30T00:04:32.160Z,11.1484
2023-04-30T00:05:33.135Z,11.1276
2023-04-30T00:06:33.809Z,11.1135
2023-04-30T00:07:34.672Z,11.1423
2023-04-30T00:08:37.104Z,11.1026
2023-04-30T00:09:36.517Z,11.0891
2023-04-30T00:10:37.077Z,11.0183
2023-04-30T00:11:37.646Z,10.9846
2023-04-30T00:12:37.934Z,10.9978
2023-04-30T00:13:38.439Z,10.9893
2023-04-30T00:14:39.051Z,10.9512
2023-04-30T00:15:39.449Z,10.9217
2023-04-30T00:16:40.135Z,10.9723
2023-04-30T00:17:40.743Z,10.9542
2023-04-30T00:18:41.577Z,10.9650
2023-04-30T00:19:42.067Z,10.9421
2023-04-30T00:20:42.539Z,10.8708
2023-04-30T00:21:43.074Z,10.8098
2023-04-30T00:22:43.640Z,10.7609
2023-04-30T00:23:44.335Z,10.7545
2023-04-30T00:24:44.832Z,10.7137
2023-04-30T00:25:45.230Z,10.7470
2023-04-30T00:26:45.742Z,10.7164
2023-04-30T00:27:46.251Z,10.6780
2023-04-30T00:28:46.664Z,10.6801
2023-04-30T00:29:47.878Z,10.6441
2023-04-30T00:30:48.843Z,10.6644
2023-04-30T00:31:49.975Z,10.6489
2023-04-30T00:32:51.146Z,10.5903
2023-04-30T00:33:51.773Z,10.5580
2023-04-30T00:34:52.434Z,10.5023
2023-04-30T00:35:55.733Z,10.4368
2023-04-30T00:37:54.616Z,10.3627
2023-04-30T00:38:55.258Z,10.3904
2023-04-30T00:39:55.829Z,10.4770
2023-04-30T00:40:56.266Z,10.5299
2023-04-30T00:41:56.876Z,10.5320
2023-04-30T00:42:57.253Z,10.4998
2023-04-30T00:43:57.864Z,10.4574
2023-04-30T00:44:59.155Z,10.4151
2023-04-30T00:46:01.310Z,10.3248
2023-04-30T00:47:03.063Z,10.2764
2023-04-30T00:48:04.656Z,10.3002
2023-04-30T00:49:04.937Z,10.3000
2023-04-30T00:50:05.393Z,10.2821
2023-04-30T00:51:06.665Z,10.2300
2023-04-30T00:52:07.002Z,10.1899
2023-04-30T00:53:08.178Z,10.2160
2023-04-30T00:54:09.801Z,10.1601
2023-04-30T00:56:10.930Z,10.1329
2023-04-30T00:57:11.278Z,10.1586
2023-04-30T00:58:12.964Z,10.1631
2023-04-30T01:00:13.936Z,10.1805
2023-04-30T01:01:14.309Z,10.1820
2023-04-30T01:02:15.626Z,10.1905
2023-04-30T01:06:19.466Z,10.2866
2023-04-30T01:08:20.378Z,10.2171
2023-04-30T01:09:20.477Z,10.2127
2023-04-30T01:11:21.382Z,10.2378
2023-04-30T01:12:21.528Z,10.2883
2023-04-30T01:13:21.965Z,10.2809
2023-04-30T01:14:23.966Z,10.2768
2023-04-30T01:21:32.355Z,10.4783
2023-04-30T01:22:34.410Z,10.4537
2023-04-30T01:23:36.173Z,10.4492
2023-04-30T01:24:36.190Z,10.4731
2023-04-30T01:25:37.518Z,10.4723
2023-04-30T01:30:44.009Z,10.4147
2023-04-30T01:31:45.865Z,10.3848
2023-04-30T01:32:46.810Z,10.3887
2023-04-30T01:33:47.628Z,10.3682
2023-04-30T01:34:49.058Z,10.3491
2023-04-30T01:35:49.427Z,10.3671
2023-04-30T01:36:49.661Z,10.3637
2023-04-30T01:37:51.590Z,10.3819
2023-04-30T01:38:53.700Z,10.4081
2023-04-30T01:39:55.480Z,10.3995
2023-04-30T01:40:56.500Z,10.3930
2023-04-30T01:41:58.491Z,10.4398
2023-04-30T01:46:00.958Z,10.4557
2023-04-30T01:47:01.614Z,10.4888
2023-04-30T01:48:02.032Z,10.5231
2023-04-30T01:49:02.010Z,10.5100
2023-04-30T01:50:03.041Z,10.5053
2023-04-30T01:51:04.790Z,10.4714
2023-04-30T01:52:06.193Z,10.4748
2023-04-30T01:53:06.769Z,10.4706
2023-04-30T01:54:07.374Z,10.4567
2023-04-30T01:55:08.575Z,10.4498
2023-04-30T01:57:10.834Z,10.3911
2023-04-30T01:58:11.165Z,10.3326
2023-04-30T02:01:13.907Z,10.2989
2023-04-30T02:02:14.199Z,10.3069
2023-04-30T02:03:15.578Z,10.3488
2023-04-30T02:04:15.953Z,10.3536
2023-04-30T02:05:16.452Z,10.3482
2023-04-30T02:06:16.782Z,10.3431
2023-04-30T02:07:17.623Z,10.3060
2023-04-30T02:08:18.123Z,10.2789
2023-04-30T02:09:18.610Z,10.2821
2023-04-30T02:10:19.530Z,10.2669
2023-04-30T02:11:20.001Z,10.2421
2023-04-30T02:12:20.568Z,10.2397
2023-04-30T02:13:21.333Z,10.2525
2023-04-30T02:14:22.590Z,10.2578
2023-04-30T02:15:23.172Z,10.2980
2023-04-30T02:16:24.090Z,10.3295
2023-04-30T02:17:24.661Z,10.3252
2023-04-30T02:18:25.868Z,10.2976
2023-04-30T02:19:26.436Z,10.3023
2023-04-30T02:20:26.881Z,10.3148
2023-04-30T02:21:27.019Z,10.2838
2023-04-30T02:22:28.643Z,10.2588
2023-04-30T02:24:29.554Z,10.3224
2023-04-30T02:25:29.594Z,10.3080
2023-04-30T02:26:30.322Z,10.3129
2023-04-30T02:27:30.871Z,10.3004
2023-04-30T02:28:31.640Z,10.2987
2023-04-30T02:29:32.873Z,10.3005
2023-04-30T02:30:33.522Z,10.3026
2023-04-30T02:31:34.334Z,10.2835
2023-04-30T02:32:35.398Z,10.2980
2023-04-30T02:33:35.997Z,10.3233
2023-04-30T02:34:36.519Z,10.3391
2023-04-30T02:35:37.168Z,10.3359
2023-04-30T02:36:37.464Z,10.3321
2023-04-30T02:37:38.035Z,10.3093
2023-04-30T02:38:38.352Z,10.3114
2023-04-30T02:39:38.945Z,10.3219
2023-04-30T02:40:39.196Z,10.3138
2023-04-30T02:41:39.566Z,10.2831
2023-04-30T02:42:40.195Z,10.2528
2023-04-30T02:43:40.687Z,10.2376
2023-04-30T02:44:41.039Z,10.2130
2023-04-30T02:45:41.772Z,10.2180
2023-04-30T02:46:42.650Z,10.2482
2023-04-30T02:47:43.331Z,10.2411
2023-04-30T02:48:43.982Z,10.2540
2023-04-30T02:49:44.428Z,10.2043
2023-04-30T02:50:45.645Z,10.2327
2023-04-30T02:51:46.366Z,10.2277
2023-04-30T02:52:46.682Z,10.2609
2023-04-30T02:53:47.233Z,10.2134
2023-04-30T02:54:47.800Z,10.2511
2023-04-30T02:55:48.284Z,10.2609
2023-04-30T02:56:48.892Z,10.2985
2023-04-30T02:57:49.355Z,10.3115
2023-04-30T02:58:49.882Z,10.3049
2023-04-30T02:59:50.462Z,10.3064
2023-04-30T03:00:50.892Z,10.3296
2023-04-30T03:01:51.984Z,10.3455
2023-04-30T03:02:53.083Z,10.3785
2023-04-30T03:03:54.160Z,10.4059
2023-04-30T03:04:54.718Z,10.4137
2023-04-30T03:05:55.466Z,10.4382
2023-04-30T03:06:56.072Z,10.4445
2023-04-30T03:07:56.659Z,10.4595
2023-04-30T03:08:57.274Z,10.4809
2023-04-30T03:09:57.629Z,10.4679
2023-04-30T03:10:58.125Z,10.4719
2023-04-30T03:11:58.596Z,10.4746
2023-04-30T03:12:59.166Z,10.5225
2023-04-30T03:13:59.719Z,10.5418
2023-04-30T03:15:00.148Z,10.5529
2023-04-30T03:16:00.798Z,10.5498
2023-04-30T03:17:01.552Z,10.5560
2023-04-30T03:18:01.634Z,10.5582
2023-04-30T03:19:02.204Z,10.5498
2023-04-30T03:20:03.087Z,10.5352
2023-04-30T03:21:03.716Z,10.5440
2023-04-30T03:22:04.277Z,10.5444
2023-04-30T03:23:04.647Z,10.5500
2023-04-30T03:24:05.248Z,10.5662
2023-04-30T03:25:05.689Z,10.5597
2023-04-30T03:26:06.164Z,10.5384
2023-04-30T03:27:06.921Z,10.5452
2023-04-30T03:28:07.810Z,10.5465
2023-04-30T03:29:08.464Z,10.5507
2023-04-30T03:30:09.582Z,10.5489
2023-04-30T03:31:10.137Z,10.5462
2023-04-30T03:32:11.060Z,10.5655
2023-04-30T03:33:12.025Z,10.5631
2023-04-30T03:34:12.881Z,10.5887
2023-04-30T03:35:13.386Z,10.5687
2023-04-30T03:36:13.871Z,10.5787
2023-04-30T03:37:14.421Z,10.5770
2023-04-30T03:38:15.075Z,10.5604
2023-04-30T03:39:15.542Z,10.5694
2023-04-30T03:40:16.170Z,10.5780
2023-04-30T03:41:16.754Z,10.5800
2023-04-30T03:42:17.241Z,10.5834
2023-04-30T03:43:17.424Z,10.5806
2023-04-30T03:44:18.160Z,10.5777
2023-04-30T03:45:18.521Z,10.5500
2023-04-30T03:46:18.555Z,10.5556
2023-04-30T03:47:19.633Z,10.5636
2023-04-30T03:48:20.743Z,10.5844
2023-04-30T03:49:21.311Z,10.5876
2023-04-30T03:50:21.697Z,10.5961
2023-04-30T03:51:22.240Z,10.5899
2023-04-30T03:52:23.074Z,10.5975
2023-04-30T03:53:23.500Z,10.5508
2023-04-30T03:54:24.043Z,10.5539
2023-04-30T03:55:24.587Z,10.5654
2023-04-30T03:56:25.031Z,10.5581
2023-04-30T03:57:25.703Z,10.5509
2023-04-30T03:58:26.038Z,10.5523
2023-04-30T03:59:26.605Z,10.5654
2023-04-30T04:00:27.568Z,10.5510
2023-04-30T04:01:28.035Z,10.5408
2023-04-30T04:02:29.283Z,10.5416
2023-04-30T04:03:30.225Z,10.5412
2023-04-30T04:04:31.340Z,10.5407
2023-04-30T04:05:31.864Z,10.5469
2023-04-30T04:06:33.068Z,10.5514
2023-04-30T04:07:33.545Z,10.5539
2023-04-30T04:08:34.081Z,10.5653
2023-04-30T04:09:34.637Z,10.5484
2023-04-30T04:10:35.087Z,10.5477
2023-04-30T04:11:35.731Z,10.5538
2023-04-30T04:12:36.256Z,10.5688
2023-04-30T04:13:36.827Z,10.5792
2023-04-30T04:14:37.399Z,10.5853
2023-04-30T04:15:37.845Z,10.5757
2023-04-30T04:16:39.164Z,10.6002
2023-04-30T04:17:40.072Z,10.6076
2023-04-30T04:18:40.648Z,10.6170
2023-04-30T04:19:41.307Z,10.6074
2023-04-30T04:20:42.407Z,10.6206
2023-04-30T04:21:42.790Z,10.6084
2023-04-30T04:22:43.402Z,10.6038
2023-04-30T04:23:43.977Z,10.5897
2023-04-30T04:24:44.320Z,10.5808
2023-04-30T04:25:44.938Z,10.5627
2023-04-30T04:26:47.881Z,10.5593
2023-04-30T04:27:46.322Z,10.5872
2023-04-30T04:28:46.949Z,10.6026
2023-04-30T04:29:47.485Z,10.5940
2023-04-30T04:30:48.058Z,10.5981
2023-04-30T04:31:48.878Z,10.6161
2023-04-30T04:32:49.569Z,10.6274
2023-04-30T04:33:50.254Z,10.6500
2023-04-30T04:34:50.955Z,10.6140
2023-04-30T04:35:51.478Z,10.6128
2023-04-30T04:36:52.098Z,10.6006
2023-04-30T04:37:52.685Z,10.6073
2023-04-30T04:38:53.320Z,10.6158
2023-04-30T04:39:54.495Z,10.6074
2023-04-30T04:40:55.050Z,10.5933
2023-04-30T04:41:55.708Z,10.5946
2023-04-30T04:42:56.284Z,10.5815
2023-04-30T04:43:56.951Z,10.6050
2023-04-30T04:44:57.575Z,10.6110
2023-04-30T04:45:58.147Z,10.6230
2023-04-30T04:46:58.976Z,10.6132
2023-04-30T04:47:59.691Z,10.6195
2023-04-30T04:49:00.126Z,10.6162
2023-04-30T04:50:01.394Z,10.6189
2023-04-30T04:51:01.967Z,10.6287
2023-04-30T04:52:02.366Z,10.6337
2023-04-30T04:53:02.956Z,10.6463
2023-04-30T04:54:03.459Z,10.6646
2023-04-30T04:55:03.973Z,10.6419
2023-04-30T04:56:04.764Z,10.6343
2023-04-30T04:57:05.193Z,10.6321
2023-04-30T04:58:05.789Z,10.6365
2023-04-30T04:59:06.382Z,10.6489
2023-04-30T05:00:08.021Z,10.6489
2023-04-30T05:01:08.596Z,10.6234
2023-04-30T05:02:09.645Z,10.6355
2023-04-30T05:03:10.735Z,10.6374
2023-04-30T05:04:11.622Z,10.6838
2023-04-30T05:05:12.281Z,10.6853
2023-04-30T05:06:12.798Z,10.6892
2023-04-30T05:07:13.927Z,10.7165
2023-04-30T05:08:14.524Z,10.7314
2023-04-30T05:09:15.003Z,10.7449
2023-04-30T05:10:15.574Z,10.7490
2023-04-30T05:11:16.421Z,10.7507
2023-04-30T05:12:16.859Z,10.7677
2023-04-30T05:13:17.502Z,10.7854
2023-04-30T05:14:17.881Z,10.7791
2023-04-30T05:15:18.516Z,10.7759
2023-04-30T05:16:19.577Z,10.8183
2023-04-30T05:17:20.218Z,10.8315
2023-04-30T05:18:21.116Z,10.8412
2023-04-30T05:19:21.859Z,10.8762
2023-04-30T05:20:22.178Z,10.8913
2023-04-30T05:21:22.897Z,10.9157
2023-04-30T05:22:23.556Z,10.8862
2023-04-30T05:23:23.972Z,10.8955
2023-04-30T05:24:24.596Z,10.8847
2023-04-30T05:25:26.944Z,10.8514
2023-04-30T05:29:28.149Z,10.8382
2023-04-30T05:30:28.247Z,10.8499
2023-04-30T05:31:29.623Z,10.8637
2023-04-30T05:32:30.369Z,10.8475
2023-04-30T05:33:31.313Z,10.8807
2023-04-30T05:34:31.753Z,10.8740
2023-04-30T05:35:32.351Z,10.9105
2023-04-30T05:36:32.966Z,10.9119
2023-04-30T05:37:33.702Z,10.9107
2023-04-30T05:38:34.668Z,10.9335
2023-04-30T05:39:34.911Z,10.9312
2023-04-30T05:40:34.800Z,10.9301
2023-04-30T05:41:35.305Z,10.9433
2023-04-30T05:42:35.397Z,10.9615
2023-04-30T05:43:36.205Z,10.9589
2023-04-30T05:44:37.639Z,10.9901
2023-04-30T05:45:38.157Z,10.9883
2023-04-30T05:46:38.944Z,10.9898
2023-04-30T05:47:39.935Z,11.0030
2023-04-30T05:48:40.598Z,10.9649
2023-04-30T05:49:40.647Z,10.9938
2023-04-30T05:50:41.927Z,11.0249
2023-04-30T05:51:42.714Z,11.0549
2023-04-30T05:52:43.517Z,11.1018
2023-04-30T05:53:43.568Z,11.0505
2023-04-30T05:54:44.235Z,11.0048
2023-04-30T05:55:44.711Z,10.9979
2023-04-30T05:56:45.505Z,11.0357
2023-04-30T05:57:45.962Z,11.0379
2023-04-30T05:58:46.631Z,11.0524
2023-04-30T05:59:47.274Z,11.1047
2023-04-30T06:00:48.375Z,11.1116
2023-04-30T06:01:48.934Z,11.0962
2023-04-30T06:02:49.207Z,11.0910
2023-04-30T06:03:49.677Z,11.0998
2023-04-30T06:04:50.429Z,11.0982
2023-04-30T06:05:51.433Z,11.0326
2023-04-30T06:06:51.727Z,10.9913
2023-04-30T06:07:52.319Z,11.0202
2023-04-30T06:08:52.727Z,11.0341
2023-04-30T06:09:53.561Z,11.0636
2023-04-30T06:10:54.289Z,11.0751
2023-04-30T06:11:54.713Z,11.1240
2023-04-30T06:12:55.221Z,11.0957
2023-04-30T06:13:55.828Z,11.0746
2023-04-30T06:14:56.229Z,11.0611
2023-04-30T06:15:56.877Z,11.0566
2023-04-30T06:16:57.596Z,11.0979
2023-04-30T06:17:58.699Z,11.1262
2023-04-30T06:18:59.450Z,11.1429
2023-04-30T06:19:59.787Z,11.1701
2023-04-30T06:21:00.549Z,11.1530
2023-04-30T06:22:01.723Z,11.1710
2023-04-30T06:23:15.367Z,11.1645
2023-04-30T06:24:34.871Z,11.1911
2023-04-30T06:25:16.725Z,11.2106
2023-04-30T06:26:17.273Z,11.1834
2023-04-30T06:27:17.791Z,11.1632
2023-04-30T06:28:18.661Z,11.1109
2023-04-30T06:29:19.374Z,11.0712
2023-04-30T06:30:20.097Z,11.0770
2023-04-30T06:31:20.898Z,11.0548
2023-04-30T06:32:21.562Z,11.0620
2023-04-30T06:33:22.351Z,11.0970
2023-04-30T06:34:22.954Z,11.1540
2023-04-30T06:35:23.402Z,11.1921
2023-04-30T06:36:24.133Z,11.1889
2023-04-30T06:37:25.362Z,11.2026
2023-04-30T06:38:26.361Z,11.1976
2023-04-30T06:39:27.007Z,11.2264
2023-04-30T06:40:27.637Z,11.2384
2023-04-30T06:41:28.651Z,11.2458
2023-04-30T06:42:29.021Z,11.2399
2023-04-30T06:43:29.723Z,11.2085
2023-04-30T06:44:29.810Z,11.2168
2023-04-30T06:45:30.376Z,11.2229
2023-04-30T06:46:31.582Z,11.2107
2023-04-30T06:47:31.449Z,11.1720
2023-04-30T06:48:32.508Z,11.1603
2023-04-30T06:49:33.121Z,11.1378
2023-04-30T06:50:33.729Z,11.1691
2023-04-30T06:51:34.157Z,11.1741
2023-04-30T06:52:34.665Z,11.1940
2023-04-30T06:53:35.212Z,11.2064
2023-04-30T06:54:35.568Z,11.2215
2023-04-30T06:55:36.164Z,11.3038
2023-04-30T06:56:37.086Z,11.2488
2023-04-30T06:57:37.672Z,11.2816
2023-04-30T06:58:38.216Z,11.2587
2023-04-30T06:59:38.682Z,11.2920
2023-04-30T07:00:39.217Z,11.2513
2023-04-30T07:01:39.939Z,11.2234
2023-04-30T07:02:40.172Z,11.2476
2023-04-30T07:03:41.003Z,11.2503
2023-04-30T07:04:42.224Z,11.1536
2023-04-30T07:05:42.662Z,11.2311
2023-04-30T07:06:43.646Z,11.3388
2023-04-30T07:07:44.123Z,11.3233
2023-04-30T07:08:45.728Z,11.3084
2023-04-30T07:09:46.304Z,11.2831
2023-04-30T07:10:46.834Z,11.2611
2023-04-30T07:11:47.446Z,11.2823
2023-04-30T07:12:48.030Z,11.3076
2023-04-30T07:13:48.434Z,11.3539
2023-04-30T07:14:49.098Z,11.3677
2023-04-30T07:15:49.551Z,11.3823
2023-04-30T07:16:50.279Z,11.4343
2023-04-30T07:17:50.892Z,11.4897
2023-04-30T07:18:51.481Z,11.6128
2023-04-30T07:19:52.300Z,11.6280
2023-04-30T07:20:53.561Z,11.7460
2023-04-30T07:21:54.638Z,11.7742
2023-04-30T07:22:55.229Z,11.8514
2023-04-30T07:23:55.564Z,11.9443
2023-04-30T07:24:56.038Z,12.0551
2023-04-30T07:25:56.671Z,12.1414
2023-04-30T07:26:57.104Z,12.1472
2023-04-30T07:27:57.664Z,12.1169
2023-04-30T07:28:58.216Z,12.0504
2023-04-30T07:29:58.694Z,12.0814
2023-04-30T07:30:59.078Z,12.0459
2023-04-30T07:31:59.704Z,12.1411
2023-04-30T07:33:00.536Z,12.0877
2023-04-30T07:34:01.280Z,12.1154
2023-04-30T07:35:01.641Z,12.0515
2023-04-30T07:36:02.183Z,12.0437
2023-04-30T07:37:02.765Z,11.9835
2023-04-30T07:38:03.341Z,11.9262
2023-04-30T07:39:03.851Z,11.8452
2023-04-30T07:40:04.809Z,11.8755
2023-04-30T07:41:05.186Z,11.8537
2023-04-30T07:42:05.815Z,11.9011
2023-04-30T07:43:06.290Z,11.9563
2023-04-30T07:44:06.876Z,11.9855
2023-04-30T07:45:07.446Z,12.0591
2023-04-30T07:46:07.983Z,12.1541
2023-04-30T07:47:09.005Z,12.2126
2023-04-30T07:48:09.921Z,12.3056
2023-04-30T07:49:10.841Z,12.3644
2023-04-30T07:50:11.420Z,12.3002
2023-04-30T07:51:12.096Z,12.3221
2023-04-30T07:52:12.843Z,12.4020
2023-04-30T07:53:13.479Z,12.4541
2023-04-30T07:54:14.364Z,12.4093
2023-04-30T07:55:14.929Z,12.3743
2023-04-30T07:56:15.510Z,12.3231
2023-04-30T07:57:15.994Z,12.3562
2023-04-30T07:58:16.521Z,12.4200
2023-04-30T07:59:17.077Z,12.4696
2023-04-30T08:00:17.767Z,12.5247
2023-04-30T08:01:18.460Z,12.6369
2023-04-30T08:02:19.229Z,12.7015
2023-04-30T08:03:20.226Z,12.6691
2023-04-30T08:04:20.530Z,12.6542
2023-04-30T08:05:21.431Z,12.6314
2023-04-30T08:06:22.115Z,12.5877
2023-04-30T08:07:22.847Z,12.6132
2023-04-30T08:08:23.422Z,12.6790
2023-04-30T08:09:24.337Z,12.6755
2023-04-30T08:10:25.210Z,12.7364
2023-04-30T08:11:25.802Z,12.7349
2023-04-30T08:12:26.378Z,12.6935
2023-04-30T08:13:26.812Z,12.6495
2023-04-30T08:14:27.398Z,12.7762
2023-04-30T08:15:28.863Z,12.7732
2023-04-30T08:16:28.733Z,12.7631
2023-04-30T08:17:29.907Z,12.8854
2023-04-30T08:18:30.532Z,12.7883
2023-04-30T08:19:31.190Z,12.8105
2023-04-30T08:20:32.170Z,12.7256
2023-04-30T08:21:32.570Z,12.7684
2023-04-30T08:22:33.193Z,12.8097
2023-04-30T08:23:33.846Z,12.8408
2023-04-30T08:24:34.485Z,12.8768
2023-04-30T08:25:35.237Z,12.9442
2023-04-30T08:26:35.550Z,12.9581
2023-04-30T08:27:36.172Z,13.0571
2023-04-30T08:28:36.868Z,13.1952
2023-04-30T08:29:37.251Z,13.1561
2023-04-30T08:30:37.955Z,13.0833
2023-04-30T08:31:38.668Z,13.1299
2023-04-30T08:32:39.843Z,13.0441
2023-04-30T08:33:39.925Z,13.0588
2023-04-30T08:34:40.445Z,13.0869
2023-04-30T08:35:40.545Z,13.0868
2023-04-30T08:36:41.016Z,13.0810
2023-04-30T08:37:41.682Z,13.0147
2023-04-30T08:38:42.373Z,13.1887
2023-04-30T08:39:42.783Z,13.1116
2023-04-30T08:40:51.428Z,13.1332
2023-04-30T08:41:44.574Z,13.0286
2023-04-30T08:42:45.165Z,13.1090
2023-04-30T08:43:46.387Z,13.1887
2023-04-30T08:44:47.491Z,13.1931
2023-04-30T08:45:48.297Z,13.1928
2023-04-30T08:46:48.865Z,13.1401
2023-04-30T08:47:49.118Z,13.1664
2023-04-30T08:49:50.040Z,13.2542
2023-04-30T08:50:50.728Z,13.2396
2023-04-30T08:51:51.391Z,13.2694
2023-04-30T08:52:52.168Z,13.3978
2023-04-30T08:53:53.101Z,13.3950
2023-04-30T08:54:53.606Z,13.3098
2023-04-30T08:55:54.281Z,13.3057
2023-04-30T08:56:54.856Z,13.4210
2023-04-30T08:57:55.254Z,13.2477
2023-04-30T08:58:56.085Z,13.2503
2023-04-30T08:59:56.751Z,13.1944
2023-04-30T09:00:56.958Z,13.1528
2023-04-30T09:01:58.066Z,13.0905
2023-04-30T09:02:59.182Z,13.1918
2023-04-30T09:03:59.588Z,13.1877
2023-04-30T09:05:00.844Z,13.1736
2023-04-30T09:06:01.411Z,13.1495
2023-04-30T09:07:04.453Z,13.0989
2023-04-30T09:08:06.417Z,13.0286
2023-04-30T09:09:07.338Z,12.9550
2023-04-30T09:10:07.836Z,13.0395
2023-04-30T09:11:08.624Z,13.1125
2023-04-30T09:12:09.003Z,13.0953
2023-04-30T09:13:09.649Z,13.0048
2023-04-30T09:14:10.551Z,12.9769
2023-04-30T09:15:11.161Z,12.9706
2023-04-30T09:16:11.856Z,12.9709
2023-04-30T09:17:11.853Z,12.9546
2023-04-30T09:18:12.661Z,13.0697
2023-04-30T09:20:12.982Z,13.0649
2023-04-30T09:21:13.668Z,13.0149
2023-04-30T09:22:14.547Z,13.0628
2023-04-30T09:23:15.036Z,13.2307
2023-04-30T09:24:18.623Z,13.1350
2023-04-30T09:25:37.731Z,13.2549
2023-04-30T09:26:17.031Z,13.2233
2023-04-30T09:27:18.141Z,13.1458
2023-04-30T09:28:19.657Z,13.2286
2023-04-30T09:29:24.884Z,13.3876
2023-04-30T09:30:20.308Z,13.2888
2023-04-30T09:31:21.599Z,13.5610
2023-04-30T09:32:22.246Z,13.5190
2023-04-30T09:33:22.399Z,13.5402
2023-04-30T09:34:23.285Z,13.6512
2023-04-30T09:35:25.003Z,13.5761
2023-04-30T09:36:25.702Z,13.5960
2023-04-30T09:37:27.151Z,13.6240
2023-04-30T09:39:28.076Z,13.7931
2023-04-30T09:40:28.264Z,13.8700
2023-04-30T09:41:28.661Z,13.8964
2023-04-30T09:42:29.287Z,13.9626
2023-04-30T09:43:30.262Z,14.2396
2023-04-30T09:44:30.674Z,14.1983
2023-04-30T09:45:32.705Z,14.2549
2023-04-30T09:46:32.487Z,14.5519
2023-04-30T09:47:33.390Z,14.5051
2023-04-30T09:50:35.006Z,14.4082
2023-04-30T09:51:35.570Z,14.3545
2023-04-30T09:52:36.507Z,14.2892
2023-04-30T09:53:37.134Z,14.4532
2023-04-30T09:54:37.965Z,14.4107
2023-04-30T09:55:37.926Z,14.4571
2023-04-30T09:56:38.010Z,14.4805
2023-04-30T09:57:38.084Z,14.3784
2023-04-30T09:58:39.444Z,14.3662
2023-04-30T09:59:39.027Z,14.3047
2023-04-30T10:00:40.154Z,14.2683
2023-04-30T10:01:41.641Z,14.3828
2023-04-30T10:02:43.014Z,14.4001
2023-04-30T10:04:43.007Z,14.5410
2023-04-30T10:05:44.337Z,14.6667
2023-04-30T10:06:58.876Z,14.5873
2023-04-30T10:07:59.117Z,14.5671
2023-04-30T10:09:00.707Z,14.5120
2023-04-30T10:10:00.837Z,14.4655
2023-04-30T10:11:01.502Z,14.4980
2023-04-30T10:12:01.966Z,14.5060
2023-04-30T10:13:02.708Z,14.5045
2023-04-30T10:14:03.020Z,14.7047
2023-04-30T10:15:03.886Z,14.6628
2023-04-30T10:16:04.503Z,14.6351
2023-04-30T10:17:05.241Z,14.5741
2023-04-30T10:18:06.333Z,14.6302
2023-04-30T10:19:07.266Z,14.6079
2023-04-30T10:20:08.512Z,14.7251
2023-04-30T10:21:09.301Z,14.8834
2023-04-30T10:22:09.885Z,15.1299
2023-04-30T10:23:10.244Z,15.1585
2023-04-30T10:24:10.940Z,15.1735
2023-04-30T10:25:11.690Z,15.1970
2023-04-30T10:26:12.233Z,15.2022
2023-04-30T10:27:13.833Z,15.1637
2023-04-30T10:28:13.429Z,15.2790
2023-04-30T10:29:14.621Z,15.4464
2023-04-30T10:30:15.165Z,15.4387
2023-04-30T10:31:15.653Z,15.3892
2023-04-30T10:32:16.821Z,15.2388
2023-04-30T10:33:18.700Z,15.2121
2023-04-30T10:34:18.707Z,15.2331
2023-04-30T10:35:19.089Z,15.2485
2023-04-30T10:36:19.751Z,15.3170
2023-04-30T10:37:20.179Z,15.2405
2023-04-30T10:38:20.701Z,15.2113
2023-04-30T10:39:37.153Z,15.0499
2023-04-30T10:40:37.263Z,15.1062
2023-04-30T10:41:37.770Z,15.1527
2023-04-30T10:42:38.425Z,15.3904
2023-04-30T10:43:40.196Z,15.4192
2023-04-30T10:44:39.162Z,15.2342
2023-04-30T10:45:40.401Z,15.3001
2023-04-30T10:46:41.721Z,15.4413
2023-04-30T10:47:42.122Z,15.6504
2023-04-30T10:48:43.114Z,15.4917
2023-04-30T10:49:43.750Z,15.6026
2023-04-30T10:50:46.173Z,15.6111
2023-04-30T10:51:45.702Z,15.7699
2023-04-30T10:53:01.867Z,15.7700
2023-04-30T10:53:47.796Z,15.9915
2023-04-30T10:54:48.506Z,16.2475
2023-04-30T10:55:49.794Z,16.3945
2023-04-30T10:56:48.714Z,16.3739
2023-04-30T10:57:49.384Z,16.2263
2023-04-30T10:58:50.039Z,16.1369
2023-04-30T10:59:50.468Z,16.0740
2023-04-30T11:00:51.648Z,16.2010
2023-04-30T11:01:52.698Z,16.1899
2023-04-30T11:02:53.740Z,16.0415
2023-04-30T11:03:54.595Z,15.8856
2023-04-30T11:04:55.594Z,15.7859
2023-04-30T11:05:56.422Z,15.6813
2023-04-30T11:06:57.527Z,15.9031
2023-04-30T11:07:58.188Z,15.8599
2023-04-30T11:08:59.188Z,15.9842
2023-04-30T11:09:59.458Z,16.0540
2023-04-30T11:11:00.159Z,16.1763
2023-04-30T11:12:01.126Z,16.2467
2023-04-30T11:13:03.651Z,16.2862
2023-04-30T11:14:04.101Z,16.3080
2023-04-30T11:15:04.810Z,16.4773
2023-04-30T11:16:05.155Z,16.5400
2023-04-30T11:17:05.411Z,16.5920
2023-04-30T11:18:05.799Z,16.6783
2023-04-30T11:19:06.195Z,16.7777
2023-04-30T11:20:06.995Z,16.7340
2023-04-30T11:21:07.429Z,16.7814
2023-04-30T11:22:08.063Z,16.8563
2023-04-30T11:23:08.725Z,16.7355
2023-04-30T11:24:10.239Z,16.8598
2023-04-30T11:25:11.025Z,16.9183
2023-04-30T11:26:11.941Z,16.7481
2023-04-30T11:27:12.876Z,16.6741
2023-04-30T11:28:14.265Z,16.5883
2023-04-30T11:29:15.554Z,16.6410
2023-04-30T11:30:15.364Z,16.5738
2023-04-30T11:31:15.757Z,16.7282
2023-04-30T11:32:16.103Z,16.6617
2023-04-30T11:33:17.179Z,16.7554
2023-04-30T11:34:17.871Z,16.6863
2023-04-30T11:35:18.750Z,16.5190
2023-04-30T11:36:19.245Z,16.7203
2023-04-30T11:37:20.498Z,16.8263
2023-04-30T11:38:21.530Z,16.7655
2023-04-30T11:39:22.541Z,16.7543
2023-04-30T11:40:23.506Z,16.7881
2023-04-30T11:41:24.054Z,17.0615
2023-04-30T11:42:24.784Z,17.5634
2023-04-30T11:43:25.671Z,17.1666
2023-04-30T11:44:26.152Z,17.0828
2023-04-30T11:45:26.832Z,16.8008
2023-04-30T11:46:27.462Z,16.9173
2023-04-30T11:47:28.322Z,16.6021
2023-04-30T11:48:30.146Z,16.5637
2023-04-30T11:49:29.511Z,16.8754
2023-04-30T11:50:29.896Z,16.7938
2023-04-30T11:51:30.230Z,16.6473
2023-04-30T11:52:30.636Z,16.8769
2023-04-30T11:53:31.404Z,16.7439
2023-04-30T11:54:31.924Z,16.5616
2023-04-30T11:55:32.686Z,16.5456
2023-04-30T11:56:33.780Z,16.5607
2023-04-30T11:57:34.309Z,16.5529
2023-04-30T11:58:35.028Z,16.6198
2023-04-30T11:59:35.741Z,16.6590
2023-04-30T12:00:36.573Z,16.5664
2023-04-30T12:01:37.280Z,16.4879
2023-04-30T12:02:38.371Z,16.3950
2023-04-30T12:03:39.436Z,16.4792
2023-04-30T12:04:40.802Z,16.4827
2023-04-30T12:05:41.363Z,16.3605
2023-04-30T12:06:42.218Z,16.3051
2023-04-30T12:07:42.732Z,16.1592
2023-04-30T12:08:43.445Z,16.1520
2023-04-30T12:09:44.222Z,16.0624
2023-04-30T12:10:45.206Z,16.0694
2023-04-30T12:11:45.835Z,16.1649
2023-04-30T12:12:46.752Z,16.2045
2023-04-30T12:13:47.338Z,16.2665
2023-04-30T12:14:47.990Z,16.3926
2023-04-30T12:15:49.473Z,16.3338
2023-04-30T12:16:50.479Z,16.2399
2023-04-30T12:18:52.663Z,16.5882
2023-04-30T12:19:51.714Z,16.7306
2023-04-30T12:20:52.413Z,16.7805
2023-04-30T12:21:52.502Z,16.7069
2023-04-30T12:22:53.426Z,16.6689
2023-04-30T12:23:54.593Z,16.6429
2023-04-30T12:24:55.018Z,16.5817
2023-04-30T12:25:55.541Z,16.6381
2023-04-30T12:26:55.812Z,16.7408
2023-04-30T12:27:57.030Z,16.6499
2023-04-30T12:28:58.116Z,16.6293
2023-04-30T12:29:58.969Z,16.5297
2023-04-30T12:31:00.160Z,16.1903
2023-04-30T12:32:00.214Z,16.0600
2023-04-30T12:33:00.649Z,16.0374
2023-04-30T12:34:02.047Z,16.1529
2023-04-30T12:36:02.141Z,16.3962
2023-04-30T12:37:02.992Z,16.2971
2023-04-30T12:38:03.453Z,16.2393
2023-04-30T12:39:04.407Z,16.0810
2023-04-30T12:40:04.573Z,16.1132
2023-04-30T12:41:16.326Z,16.0039
2023-04-30T12:42:16.737Z,15.9973
2023-04-30T12:43:17.450Z,15.8617
2023-04-30T12:44:17.862Z,15.9443
2023-04-30T12:45:18.357Z,16.0530
2023-04-30T12:46:19.268Z,16.1267
2023-04-30T12:47:19.887Z,16.0983
2023-04-30T12:48:20.165Z,16.1331
2023-04-30T12:49:20.734Z,16.0892
2023-04-30T12:50:21.504Z,16.1454
2023-04-30T12:51:22.174Z,16.2565